Flight Track Log - Related Links

Times and Time Zones

All times are in EDT time to prevent confusion due to time zone crossing. See the UAL3740 flight status page for this flight to view local times or setup timezone preferences in your user account.

Time Position Orientation Groundspeed Altitude Reporting Facility
EDT Latitude Longitude Course Direction KTS MPH feet Rate Location/Type
Wed 08:31:47 AM 39.0000 -77.4500 90° East 223 257 3,300  Level Potomac TRACON
Wed 08:32:48 AM 39.0833 -77.4500 360° North 260 299 6,300 3,025 Climbing Potomac TRACON
Wed 08:33:48 AM 39.1333 -77.4000 38° Northeast 281 323 9,400 1,947 Climbing Potomac TRACON
Wed 08:34:42 AM 39.1667 -77.3167 63° Northeast 325 374 10,000 947 Climbing Potomac TRACON
Wed 08:36:39 AM 39.0936 -77.0919 113° Southeast 376 433 12,100 1,390 Climbing Washington Center
Wed 08:37:00 AM 39.0833 -76.6300 90° East  Level FlightAware Approximate
Wed 08:37:39 AM 39.0911 -76.9503 91° East 383 441 14,100  Level Washington Center
Wed 08:38:39 AM 39.1094 -76.8114 80° East 383 441 16,600 2,400 Climbing Washington Center
Wed 08:39:39 AM 39.1169 -76.6669 86° East 383 441 18,900 2,420 Climbing Washington Center
Wed 08:40:38 AM 39.1306 -76.5336 82° East 383 441 21,400 2,000 Climbing Washington Center
Wed 08:41:39 AM 39.1733 -76.4081 66° East 377 434 22,900 793 Climbing Washington Center
Wed 08:42:39 AM 39.2283 -76.2775 61° Northeast 391 450 23,000 101 Climbing Washington Center
Wed 08:43:38 AM 39.2936 -76.1358 59° Northeast 420 483 23,100 650 Climbing Washington Center
Wed 08:44:39 AM 39.3525 -75.9889 63° Northeast 446 513 24,300 1,339 Climbing Washington Center
Wed 08:45:39 AM 39.4153 -75.8414 61° Northeast 459 528 25,800 1,513 Climbing Washington Center
Wed 08:46:38 AM 39.4781 -75.6911 62° Northeast 464 534 27,300 1,200 Climbing Washington Center
Wed 08:47:39 AM 39.5406 -75.5431 61° Northeast 464 534 28,200 1,050 Climbing Washington Center
Wed 08:48:38 AM 39.6031 -75.3894 62° Northeast 464 534 29,400 1,286 Climbing Washington Center
Wed 08:50:13 AM 39.7200 -75.1917 52° Northeast 472 543 31,500 1,303 Climbing New York Center
Wed 08:51:10 AM 39.8061 -75.0619 49° Northeast 467 537 32,700 756 Climbing New York Center
Wed 08:52:12 AM 39.8942 -74.9375 47° Northeast 462 532 33,000 148 Climbing New York Center
Wed 08:53:12 AM 39.9842 -74.8075 48° Northeast 469 540 33,000  Level New York Center
Wed 08:54:11 AM 40.0869 -74.6589 48° Northeast 495 570 33,000 -535 Level New York Center
Wed 08:55:49 AM 40.1997 -74.3772 62° Northeast 555 639 31,600 -1,063 Descending Boston Center
Wed 08:56:49 AM 40.2608 -74.2050 65° Northeast 523 602 30,200 -1,388 Descending Boston Center
Wed 08:57:50 AM 40.3217 -74.0378 64° Northeast 512 589 28,800 -1,438 Descending Boston Center
Wed 08:58:50 AM 40.3803 -73.8731 65° Northeast 507 583 27,300 -812 Descending Boston Center
Wed 09:00:03 AM 40.4364 -73.7106 66° East 496 571 27,000 -135 Descending Boston Center
Wed 09:01:03 AM 40.5072 -73.5100 65° Northeast 496 571 27,000 -153 Level Boston Center
Wed 09:02:01 AM 40.5669 -73.3417 65° Northeast 496 571 26,700 -1,059 Descending Boston Center
Wed 09:03:02 AM 40.6244 -73.1728 66° East 496 571 24,900 -1,918 Descending Boston Center
Wed 09:04:03 AM 40.6797 -73.0119 66° East 496 571 22,800 -1,983 Descending Boston Center
Wed 09:05:03 AM 40.7344 -72.8564 65° Northeast 485 558 20,900 -1,831 Descending Boston Center
Wed 09:06:01 AM 40.7850 -72.7197 64° Northeast 458 527 19,200 -1,500 Descending Boston Center
Wed 09:07:15 AM 40.8353 -72.5717 66° East 448 516 17,600 -1,636 Descending Boston Center
Wed 09:08:13 AM 40.8936 -72.3961 66° East 437 503 15,600 -1,881 Descending Boston Center
Wed 09:09:13 AM 40.9414 -72.2561 66° East 426 490 13,900 -1,636 Descending Boston Center
Wed 09:10:14 AM 40.9911 -72.1100 66° East 419 482 12,300 -1,765 Descending Boston Center
Wed 09:10:38 AM 41.0117 -72.0467 67° East 424 488 11,400 -1,180 Descending Boston Center
Wed 09:11:15 AM 41.0386 -71.9694 65° Northeast 419 482 11,100 -309 Descending Boston Center
Wed 09:12:15 AM 41.1025 -71.8533 54° Northeast 405 466 10,900 -738 Descending Boston Center
Wed 09:13:25 AM 41.2022 -71.7917 25° Northeast 309 356 9,500 -1,412 Descending Boston Center
Wed 09:14:31 AM 41.2811 -71.7386 27° Northeast 298 343 7,700 -1,729 Descending Boston Center
Wed 09:15:23 AM 41.3497 -71.6989 23° Northeast 293 337 6,100 -1,752 Descending Boston Center
Wed 09:16:24 AM 41.4222 -71.6539 25° Northeast 278 320 4,400 -1,513 Descending Boston Center
Wed 09:17:18 AM 41.4783 -71.6200 24° Northeast 261 300 3,200 -769 Descending Boston Center
Wed 09:18:21 AM 41.5406 -71.5831 24° Northeast 244 281 2,900 -339 Descending Boston Center
Wed 09:19:22 AM 41.5944 -71.5381 32° Northeast 231 266 2,500 -496 Descending Boston Center
Wed 09:20:22 AM 41.6358 -71.5014 34° Northeast 157 181 1,900 -689 Descending Boston Center
Wed 09:21:24 AM 41.6669 -71.4731 34° Northeast 142 163 1,100 -787 Descending Boston Center
Wed 09:22:24 AM 41.7000 -71.4447 33° Northeast 140 161 300 -800 Descending Boston Center

Login

Don't have an account? Register now (free) for customized features, flight alerts, and more!